DAL2842 KATL-KSDF
Flight info
| Callsign | DAL2842 |
|---|---|
| Flight time | 0h 55m |
| Altitude | 32000 |
| Route | VARNM2 GLAZR LEDDL1 |
| Aircraft | B739/M-SDE2E3FGHIRWXY/LB1 |
Departure
| Time | 2026-05-04 03:31 |
|---|---|
| Airport | Hartsfield Jackson Atlanta International Airport (KATL) |
Arrival
| Time | 2026-05-04 04:26 |
|---|---|
| Airport | Louisville Muhammad Ali International Airport (KSDF) |
| Time | Latitude | Longitude | Altitude | Speed | Heading |
|---|---|---|---|---|---|
| 2026-05-04 02:36 | 33.64043 | -84.43656 | 1035 ft | 0 kts | 90° |
| 2026-05-04 03:16 | 33.64043 | -84.43658 | 1035 ft | 2 kts | 90° |
| 2026-05-04 03:16 | 33.64042 | -84.43689 | 1035 ft | 4 kts | 83° |
| 2026-05-04 03:16 | 33.64035 | -84.43719 | 1035 ft | 4 kts | 54° |
| 2026-05-04 03:16 | 33.64030 | -84.43727 | 1035 ft | 1 kts | 45° |
| 2026-05-04 03:19 | 33.64036 | -84.43724 | 1034 ft | 2 kts | 20° |
| 2026-05-04 03:19 | 33.64057 | -84.43723 | 1034 ft | 4 kts | 2° |
| 2026-05-04 03:20 | 33.64090 | -84.43721 | 1034 ft | 6 kts | 2° |
| 2026-05-04 03:20 | 33.64134 | -84.43720 | 1034 ft | 7 kts | 359° |
| 2026-05-04 03:20 | 33.64188 | -84.43722 | 1034 ft | 8 kts | 359° |
| 2026-05-04 03:20 | 33.64252 | -84.43722 | 1034 ft | 10 kts | 360° |
| 2026-05-04 03:21 | 33.64320 | -84.43722 | 1034 ft | 10 kts | 0° |
| 2026-05-04 03:21 | 33.64387 | -84.43722 | 1034 ft | 9 kts | 0° |
| 2026-05-04 03:21 | 33.64446 | -84.43698 | 1035 ft | 9 kts | 44° |
| 2026-05-04 03:21 | 33.64460 | -84.43627 | 1035 ft | 9 kts | 90° |
| 2026-05-04 03:22 | 33.64460 | -84.43553 | 1035 ft | 9 kts | 90° |
| 2026-05-04 03:22 | 33.64460 | -84.43473 | 1035 ft | 9 kts | 90° |
| 2026-05-04 03:22 | 33.64460 | -84.43396 | 1035 ft | 9 kts | 90° |
| 2026-05-04 03:22 | 33.64460 | -84.43320 | 1035 ft | 9 kts | 90° |
| 2026-05-04 03:23 | 33.64461 | -84.43246 | 1035 ft | 9 kts | 90° |
| 2026-05-04 03:23 | 33.64460 | -84.43171 | 1035 ft | 10 kts | 90° |
| 2026-05-04 03:23 | 33.64460 | -84.43080 | 1035 ft | 12 kts | 89° |
| 2026-05-04 03:23 | 33.64461 | -84.42971 | 1035 ft | 14 kts | 90° |
| 2026-05-04 03:24 | 33.64461 | -84.42854 | 1034 ft | 14 kts | 90° |
| 2026-05-04 03:24 | 33.64466 | -84.42741 | 1034 ft | 13 kts | 84° |
| 2026-05-04 03:24 | 33.64470 | -84.42633 | 1034 ft | 13 kts | 90° |
| 2026-05-04 03:24 | 33.64470 | -84.42529 | 1034 ft | 12 kts | 90° |
| 2026-05-04 03:25 | 33.64470 | -84.42426 | 1034 ft | 12 kts | 90° |
| 2026-05-04 03:25 | 33.64470 | -84.42326 | 1034 ft | 12 kts | 90° |
| 2026-05-04 03:25 | 33.64486 | -84.42234 | 1034 ft | 11 kts | 62° |
| 2026-05-04 03:25 | 33.64524 | -84.42153 | 1034 ft | 11 kts | 60° |
| 2026-05-04 03:26 | 33.64543 | -84.42075 | 1034 ft | 10 kts | 88° |
| 2026-05-04 03:26 | 33.64543 | -84.41994 | 1034 ft | 10 kts | 91° |
| 2026-05-04 03:26 | 33.64542 | -84.41911 | 1034 ft | 10 kts | 90° |
| 2026-05-04 03:26 | 33.64543 | -84.41818 | 1035 ft | 12 kts | 90° |
| 2026-05-04 03:27 | 33.64543 | -84.41694 | 1035 ft | 16 kts | 89° |
| 2026-05-04 03:27 | 33.64543 | -84.41559 | 1035 ft | 16 kts | 90° |
| 2026-05-04 03:27 | 33.64544 | -84.41428 | 1035 ft | 15 kts | 90° |
| 2026-05-04 03:27 | 33.64544 | -84.41303 | 1035 ft | 15 kts | 90° |
| 2026-05-04 03:28 | 33.64544 | -84.41183 | 1035 ft | 14 kts | 90° |
| 2026-05-04 03:28 | 33.64544 | -84.41068 | 1035 ft | 13 kts | 90° |
| 2026-05-04 03:28 | 33.64544 | -84.40959 | 1034 ft | 12 kts | 90° |
| 2026-05-04 03:28 | 33.64544 | -84.40872 | 1034 ft | 10 kts | 90° |
| 2026-05-04 03:29 | 33.64562 | -84.40794 | 1034 ft | 10 kts | 64° |
| 2026-05-04 03:29 | 33.64571 | -84.40715 | 1034 ft | 10 kts | 88° |
| 2026-05-04 03:29 | 33.64571 | -84.40637 | 1034 ft | 9 kts | 90° |
| 2026-05-04 03:29 | 33.64599 | -84.40576 | 1033 ft | 9 kts | 20° |
| 2026-05-04 03:30 | 33.64663 | -84.40574 | 1032 ft | 9 kts | 353° |
| 2026-05-04 03:30 | 33.64680 | -84.40639 | 1032 ft | 9 kts | 269° |
| 2026-05-04 03:30 | 33.64679 | -84.40932 | 1035 ft | 70 kts | 270° |
| 2026-05-04 03:30 | 33.64679 | -84.41788 | 1035 ft | 133 kts | 270° |
| 2026-05-04 03:31 | 33.64679 | -84.43075 | 1199 ft | 165 kts | 269° |
| 2026-05-04 03:31 | 33.64673 | -84.44483 | 1808 ft | 172 kts | 270° |
| 2026-05-04 03:31 | 33.64676 | -84.45922 | 2584 ft | 172 kts | 275° |
| 2026-05-04 03:31 | 33.65061 | -84.47337 | 3141 ft | 193 kts | 294° |
| 2026-05-04 03:32 | 33.65655 | -84.48931 | 3410 ft | 225 kts | 295° |
| 2026-05-04 03:32 | 33.66357 | -84.50675 | 3949 ft | 237 kts | 295° |
| 2026-05-04 03:32 | 33.67089 | -84.52512 | 4392 ft | 254 kts | 295° |
| 2026-05-04 03:32 | 33.67859 | -84.54478 | 5053 ft | 264 kts | 294° |
| 2026-05-04 03:33 | 33.68747 | -84.56416 | 5885 ft | 267 kts | 310° |
| 2026-05-04 03:33 | 33.70232 | -84.57756 | 6744 ft | 271 kts | 336° |
| 2026-05-04 03:33 | 33.72072 | -84.58238 | 7538 ft | 274 kts | 357° |
| 2026-05-04 03:33 | 33.73979 | -84.58219 | 8389 ft | 275 kts | 0° |
| 2026-05-04 03:34 | 33.75898 | -84.58164 | 9225 ft | 277 kts | 0° |
| 2026-05-04 03:34 | 33.77834 | -84.58122 | 10059 ft | 279 kts | 360° |
| 2026-05-04 03:34 | 33.79783 | -84.58091 | 10811 ft | 281 kts | 359° |
| 2026-05-04 03:34 | 33.81752 | -84.58068 | 11479 ft | 288 kts | 359° |
| 2026-05-04 03:35 | 33.83833 | -84.58081 | 11687 ft | 311 kts | 358° |
| 2026-05-04 03:35 | 33.86078 | -84.58124 | 11852 ft | 333 kts | 358° |
| 2026-05-04 03:35 | 33.88465 | -84.58196 | 12014 ft | 354 kts | 357° |
| 2026-05-04 03:35 | 33.90997 | -84.58280 | 12168 ft | 373 kts | 357° |
| 2026-05-04 03:36 | 33.93636 | -84.58366 | 12488 ft | 385 kts | 358° |
| 2026-05-04 03:36 | 33.96332 | -84.58452 | 13063 ft | 390 kts | 358° |
| 2026-05-04 03:36 | 33.99050 | -84.58536 | 13694 ft | 392 kts | 358° |
| 2026-05-04 03:36 | 34.01787 | -84.58618 | 14277 ft | 394 kts | 357° |
| 2026-05-04 03:37 | 34.04539 | -84.58702 | 14802 ft | 398 kts | 357° |
| 2026-05-04 03:37 | 34.07315 | -84.58786 | 15350 ft | 400 kts | 357° |
| 2026-05-04 03:37 | 34.10109 | -84.58870 | 15883 ft | 403 kts | 357° |
| 2026-05-04 03:37 | 34.12925 | -84.58955 | 16401 ft | 406 kts | 357° |
| 2026-05-04 03:38 | 34.15761 | -84.59042 | 16914 ft | 409 kts | 357° |
| 2026-05-04 03:38 | 34.18616 | -84.59129 | 17411 ft | 412 kts | 356° |
| 2026-05-04 03:38 | 34.21457 | -84.59215 | 17883 ft | 415 kts | 356° |
| 2026-05-04 03:38 | 34.24352 | -84.59302 | 18355 ft | 418 kts | 356° |
| 2026-05-04 03:39 | 34.27270 | -84.59390 | 18778 ft | 421 kts | 356° |
| 2026-05-04 03:39 | 34.30203 | -84.59505 | 19199 ft | 423 kts | 355° |
| 2026-05-04 03:39 | 34.33145 | -84.59720 | 19625 ft | 425 kts | 354° |
| 2026-05-04 03:39 | 34.36106 | -84.59985 | 20058 ft | 427 kts | 353° |
| 2026-05-04 03:40 | 34.39074 | -84.60266 | 20483 ft | 430 kts | 353° |
| 2026-05-04 03:40 | 34.42066 | -84.60547 | 20896 ft | 432 kts | 353° |
| 2026-05-04 03:40 | 34.45070 | -84.60822 | 21291 ft | 435 kts | 353° |
| 2026-05-04 03:40 | 34.48093 | -84.61091 | 21669 ft | 437 kts | 353° |
| 2026-05-04 03:41 | 34.51136 | -84.61356 | 22040 ft | 439 kts | 353° |
| 2026-05-04 03:41 | 34.54197 | -84.61619 | 22400 ft | 442 kts | 353° |
| 2026-05-04 03:41 | 34.57271 | -84.61882 | 22775 ft | 444 kts | 353° |
| 2026-05-04 03:41 | 34.60363 | -84.62145 | 23141 ft | 447 kts | 353° |
| 2026-05-04 03:42 | 34.63470 | -84.62409 | 23500 ft | 449 kts | 352° |
| 2026-05-04 03:42 | 34.66593 | -84.62675 | 23842 ft | 451 kts | 352° |
| 2026-05-04 03:42 | 34.69727 | -84.62943 | 24136 ft | 452 kts | 352° |
| 2026-05-04 03:42 | 34.72872 | -84.63211 | 24466 ft | 453 kts | 352° |
| 2026-05-04 03:43 | 34.76020 | -84.63480 | 24798 ft | 454 kts | 352° |
| 2026-05-04 03:43 | 34.79180 | -84.63750 | 25113 ft | 455 kts | 352° |
| 2026-05-04 03:43 | 34.82348 | -84.64021 | 25421 ft | 457 kts | 352° |
| 2026-05-04 03:43 | 34.85519 | -84.64293 | 25717 ft | 458 kts | 352° |
| 2026-05-04 03:44 | 34.88706 | -84.64567 | 26015 ft | 460 kts | 352° |
| 2026-05-04 03:44 | 34.91892 | -84.64840 | 26410 ft | 458 kts | 352° |
| 2026-05-04 03:44 | 34.95063 | -84.65111 | 26906 ft | 455 kts | 352° |
| 2026-05-04 03:44 | 34.98208 | -84.65380 | 27425 ft | 451 kts | 352° |
| 2026-05-04 03:45 | 35.01332 | -84.65648 | 27917 ft | 449 kts | 351° |
| 2026-05-04 03:45 | 35.04443 | -84.65915 | 28376 ft | 447 kts | 351° |
| 2026-05-04 03:45 | 35.07542 | -84.66183 | 28855 ft | 446 kts | 351° |
| 2026-05-04 03:45 | 35.10626 | -84.66449 | 29373 ft | 443 kts | 351° |
| 2026-05-04 03:46 | 35.13689 | -84.66713 | 29906 ft | 440 kts | 351° |
| 2026-05-04 03:46 | 35.16737 | -84.66976 | 30373 ft | 438 kts | 351° |
| 2026-05-04 03:46 | 35.19773 | -84.67239 | 30778 ft | 436 kts | 351° |
| 2026-05-04 03:46 | 35.22795 | -84.67501 | 31157 ft | 435 kts | 351° |
| 2026-05-04 03:47 | 35.25808 | -84.67762 | 31550 ft | 433 kts | 351° |
| 2026-05-04 03:47 | 35.28811 | -84.68023 | 31938 ft | 431 kts | 351° |
| 2026-05-04 03:47 | 35.31802 | -84.68283 | 32122 ft | 433 kts | 351° |
| 2026-05-04 03:48 | 35.37803 | -84.68805 | 32137 ft | 430 kts | 350° |
| 2026-05-04 03:48 | 35.43758 | -84.69322 | 32146 ft | 428 kts | 350° |
| 2026-05-04 03:49 | 35.49657 | -84.69837 | 32137 ft | 427 kts | 350° |
| 2026-05-04 03:49 | 35.55576 | -84.70353 | 32125 ft | 426 kts | 350° |
| 2026-05-04 03:50 | 35.61493 | -84.70871 | 32114 ft | 426 kts | 350° |
| 2026-05-04 03:50 | 35.67442 | -84.71393 | 32110 ft | 430 kts | 350° |
| 2026-05-04 03:51 | 35.73423 | -84.71918 | 32105 ft | 432 kts | 350° |
| 2026-05-04 03:51 | 35.79422 | -84.72443 | 32111 ft | 432 kts | 350° |
| 2026-05-04 03:52 | 35.85415 | -84.72969 | 32104 ft | 432 kts | 350° |
| 2026-05-04 03:52 | 35.91397 | -84.73495 | 32119 ft | 430 kts | 349° |
| 2026-05-04 03:53 | 35.97367 | -84.74021 | 32108 ft | 430 kts | 349° |
| 2026-05-04 03:53 | 36.03322 | -84.74547 | 31907 ft | 430 kts | 349° |
| 2026-05-04 03:53 | 36.06302 | -84.74811 | 31702 ft | 429 kts | 349° |
| 2026-05-04 03:54 | 36.09283 | -84.75074 | 31447 ft | 430 kts | 349° |
| 2026-05-04 03:54 | 36.12267 | -84.75339 | 31207 ft | 431 kts | 349° |
| 2026-05-04 03:54 | 36.15259 | -84.75605 | 30961 ft | 432 kts | 349° |
| 2026-05-04 03:54 | 36.18260 | -84.75871 | 30719 ft | 432 kts | 349° |
| 2026-05-04 03:55 | 36.21263 | -84.76138 | 30481 ft | 433 kts | 349° |
| 2026-05-04 03:55 | 36.24273 | -84.76405 | 30236 ft | 434 kts | 349° |
| 2026-05-04 03:55 | 36.27288 | -84.76673 | 29978 ft | 435 kts | 349° |
| 2026-05-04 03:55 | 36.30315 | -84.76942 | 29697 ft | 436 kts | 349° |
| 2026-05-04 03:56 | 36.33347 | -84.77212 | 29402 ft | 438 kts | 349° |
| 2026-05-04 03:56 | 36.36394 | -84.77483 | 29075 ft | 440 kts | 349° |
| 2026-05-04 03:56 | 36.39453 | -84.77756 | 28753 ft | 442 kts | 349° |
| 2026-05-04 03:56 | 36.42528 | -84.78018 | 28433 ft | 444 kts | 351° |
| 2026-05-04 03:57 | 36.45634 | -84.78030 | 28234 ft | 448 kts | 355° |
| 2026-05-04 03:57 | 36.48760 | -84.77840 | 28132 ft | 451 kts | 357° |
| 2026-05-04 03:57 | 36.51893 | -84.77581 | 28108 ft | 452 kts | 357° |
| 2026-05-04 03:58 | 36.61308 | -84.76873 | 28094 ft | 451 kts | 356° |
| 2026-05-04 03:58 | 36.67574 | -84.76492 | 28115 ft | 450 kts | 356° |
| 2026-05-04 03:59 | 36.73832 | -84.76126 | 28115 ft | 450 kts | 356° |
| 2026-05-04 03:59 | 36.80092 | -84.75757 | 28111 ft | 450 kts | 356° |
| 2026-05-04 04:00 | 36.86305 | -84.75387 | 28125 ft | 450 kts | 356° |
| 2026-05-04 04:00 | 36.92441 | -84.75883 | 28086 ft | 435 kts | 338° |
| 2026-05-04 04:01 | 36.95354 | -84.76939 | 27936 ft | 438 kts | 338° |
| 2026-05-04 04:01 | 36.98304 | -84.77967 | 27731 ft | 441 kts | 339° |
| 2026-05-04 04:01 | 37.01280 | -84.78973 | 27449 ft | 445 kts | 339° |
| 2026-05-04 04:01 | 37.04262 | -84.79962 | 27187 ft | 442 kts | 339° |
| 2026-05-04 04:02 | 37.07224 | -84.80934 | 26927 ft | 439 kts | 339° |
| 2026-05-04 04:02 | 37.10190 | -84.81909 | 26680 ft | 442 kts | 339° |
| 2026-05-04 04:02 | 37.13167 | -84.82891 | 26435 ft | 444 kts | 339° |
| 2026-05-04 04:02 | 37.16171 | -84.83885 | 25568 ft | 449 kts | 340° |
| 2026-05-04 04:03 | 37.19171 | -84.84876 | 24790 ft | 444 kts | 340° |
| 2026-05-04 04:03 | 37.22139 | -84.85856 | 24015 ft | 439 kts | 340° |
| 2026-05-04 04:03 | 37.25083 | -84.86830 | 23156 ft | 435 kts | 340° |
| 2026-05-04 04:03 | 37.27993 | -84.87796 | 22335 ft | 430 kts | 340° |
| 2026-05-04 04:04 | 37.30864 | -84.88749 | 21590 ft | 423 kts | 340° |
| 2026-05-04 04:04 | 37.32739 | -84.89372 | 21096 ft | 420 kts | 340° |
| 2026-05-04 04:04 | 37.35544 | -84.90306 | 20360 ft | 414 kts | 340° |
| 2026-05-04 04:04 | 37.38308 | -84.91227 | 19654 ft | 408 kts | 340° |
| 2026-05-04 04:05 | 37.41016 | -84.92128 | 18941 ft | 397 kts | 340° |
| 2026-05-04 04:05 | 37.43635 | -84.93026 | 18243 ft | 383 kts | 336° |
| 2026-05-04 04:05 | 37.45954 | -84.94443 | 17514 ft | 361 kts | 322° |
| 2026-05-04 04:05 | 37.47873 | -84.96379 | 16810 ft | 348 kts | 316° |
| 2026-05-04 04:06 | 37.49662 | -84.98353 | 16327 ft | 333 kts | 316° |
| 2026-05-04 04:06 | 37.51344 | -85.00204 | 16182 ft | 313 kts | 316° |
| 2026-05-04 04:06 | 37.52975 | -85.01977 | 16068 ft | 310 kts | 316° |
| 2026-05-04 04:06 | 37.54615 | -85.03747 | 15933 ft | 310 kts | 316° |
| 2026-05-04 04:07 | 37.56247 | -85.05501 | 15813 ft | 307 kts | 316° |
| 2026-05-04 04:07 | 37.57975 | -85.07085 | 15600 ft | 312 kts | 328° |
| 2026-05-04 04:07 | 37.60042 | -85.08085 | 15177 ft | 322 kts | 337° |
| 2026-05-04 04:07 | 37.62191 | -85.08895 | 14717 ft | 322 kts | 338° |
| 2026-05-04 04:08 | 37.64334 | -85.09679 | 14267 ft | 319 kts | 338° |
| 2026-05-04 04:08 | 37.66457 | -85.10469 | 13828 ft | 317 kts | 338° |
| 2026-05-04 04:08 | 37.68551 | -85.11263 | 13342 ft | 310 kts | 338° |
| 2026-05-04 04:08 | 37.70588 | -85.12045 | 12891 ft | 301 kts | 338° |
| 2026-05-04 04:09 | 37.72561 | -85.12804 | 12459 ft | 292 kts | 337° |
| 2026-05-04 04:09 | 37.74486 | -85.13530 | 12037 ft | 286 kts | 338° |
| 2026-05-04 04:09 | 37.76381 | -85.14208 | 11633 ft | 280 kts | 338° |
| 2026-05-04 04:09 | 37.78238 | -85.14867 | 11240 ft | 275 kts | 338° |
| 2026-05-04 04:10 | 37.80061 | -85.15517 | 10853 ft | 270 kts | 338° |
| 2026-05-04 04:10 | 37.81854 | -85.16159 | 10525 ft | 263 kts | 338° |
| 2026-05-04 04:10 | 37.83575 | -85.16774 | 10414 ft | 254 kts | 338° |
| 2026-05-04 04:10 | 37.85268 | -85.17383 | 10292 ft | 251 kts | 338° |
| 2026-05-04 04:11 | 37.86954 | -85.17992 | 10200 ft | 254 kts | 338° |
| 2026-05-04 04:11 | 37.88672 | -85.18613 | 10092 ft | 259 kts | 338° |
| 2026-05-04 04:11 | 37.90413 | -85.19241 | 9948 ft | 262 kts | 339° |
| 2026-05-04 04:11 | 37.92185 | -85.19880 | 9584 ft | 265 kts | 339° |
| 2026-05-04 04:12 | 37.93952 | -85.20515 | 9239 ft | 263 kts | 339° |
| 2026-05-04 04:12 | 37.95667 | -85.21257 | 8911 ft | 258 kts | 327° |
| 2026-05-04 04:12 | 37.97037 | -85.22598 | 8670 ft | 249 kts | 314° |
| 2026-05-04 04:12 | 37.98306 | -85.24089 | 8360 ft | 247 kts | 314° |
| 2026-05-04 04:13 | 37.99562 | -85.25561 | 8080 ft | 245 kts | 314° |
| 2026-05-04 04:13 | 38.00807 | -85.27014 | 7797 ft | 242 kts | 314° |
| 2026-05-04 04:13 | 38.02044 | -85.28456 | 7514 ft | 240 kts | 314° |
| 2026-05-04 04:13 | 38.03270 | -85.29882 | 7223 ft | 238 kts | 314° |
| 2026-05-04 04:14 | 38.04484 | -85.31293 | 7039 ft | 234 kts | 314° |
| 2026-05-04 04:14 | 38.05672 | -85.32676 | 6927 ft | 230 kts | 314° |
| 2026-05-04 04:14 | 38.06846 | -85.34042 | 6859 ft | 229 kts | 314° |
| 2026-05-04 04:14 | 38.08025 | -85.35418 | 6787 ft | 232 kts | 314° |
| 2026-05-04 04:15 | 38.09230 | -85.36825 | 6715 ft | 238 kts | 314° |
| 2026-05-04 04:15 | 38.10446 | -85.38242 | 6632 ft | 237 kts | 314° |
| 2026-05-04 04:15 | 38.11654 | -85.39648 | 6565 ft | 235 kts | 315° |
| 2026-05-04 04:15 | 38.12852 | -85.41044 | 6485 ft | 232 kts | 314° |
| 2026-05-04 04:16 | 38.14028 | -85.42417 | 6412 ft | 228 kts | 314° |
| 2026-05-04 04:16 | 38.15189 | -85.43774 | 6337 ft | 226 kts | 315° |
| 2026-05-04 04:16 | 38.16349 | -85.45130 | 6285 ft | 228 kts | 314° |
| 2026-05-04 04:16 | 38.17520 | -85.46500 | 6204 ft | 229 kts | 314° |
| 2026-05-04 04:17 | 38.18695 | -85.47874 | 6117 ft | 230 kts | 314° |
| 2026-05-04 04:17 | 38.19877 | -85.49257 | 6011 ft | 229 kts | 314° |
| 2026-05-04 04:17 | 38.21025 | -85.50598 | 5906 ft | 220 kts | 314° |
| 2026-05-04 04:17 | 38.22150 | -85.51915 | 5644 ft | 220 kts | 314° |
| 2026-05-04 04:18 | 38.23270 | -85.53226 | 5389 ft | 218 kts | 313° |
| 2026-05-04 04:18 | 38.24380 | -85.54527 | 5143 ft | 216 kts | 313° |
| 2026-05-04 04:18 | 38.25486 | -85.55825 | 4895 ft | 216 kts | 313° |
| 2026-05-04 04:18 | 38.26588 | -85.57119 | 4633 ft | 216 kts | 312° |
| 2026-05-04 04:19 | 38.27690 | -85.58414 | 4376 ft | 215 kts | 312° |
| 2026-05-04 04:19 | 38.28791 | -85.59706 | 4130 ft | 215 kts | 312° |
| 2026-05-04 04:19 | 38.29894 | -85.61001 | 3874 ft | 216 kts | 311° |
| 2026-05-04 04:19 | 38.30999 | -85.62301 | 3692 ft | 216 kts | 311° |
| 2026-05-04 04:20 | 38.32097 | -85.63592 | 3462 ft | 212 kts | 311° |
| 2026-05-04 04:20 | 38.33173 | -85.64854 | 3316 ft | 210 kts | 311° |
| 2026-05-04 04:20 | 38.34245 | -85.66116 | 3221 ft | 209 kts | 311° |
| 2026-05-04 04:20 | 38.35035 | -85.67589 | 3069 ft | 197 kts | 276° |
| 2026-05-04 04:21 | 38.34908 | -85.69221 | 2981 ft | 182 kts | 253° |
| 2026-05-04 04:21 | 38.34586 | -85.70777 | 2853 ft | 181 kts | 254° |
| 2026-05-04 04:21 | 38.34285 | -85.72336 | 2703 ft | 180 kts | 251° |
| 2026-05-04 04:21 | 38.33986 | -85.73870 | 2612 ft | 178 kts | 253° |
| 2026-05-04 04:22 | 38.33680 | -85.75366 | 2523 ft | 169 kts | 252° |
| 2026-05-04 04:22 | 38.32998 | -85.76474 | 2500 ft | 165 kts | 205° |
| 2026-05-04 04:22 | 38.31843 | -85.76661 | 2515 ft | 173 kts | 188° |
| 2026-05-04 04:22 | 38.30659 | -85.76787 | 2500 ft | 169 kts | 187° |
| 2026-05-04 04:23 | 38.29492 | -85.76651 | 2491 ft | 167 kts | 178° |
| 2026-05-04 04:23 | 38.28362 | -85.76406 | 2440 ft | 164 kts | 174° |
| 2026-05-04 04:23 | 38.27252 | -85.76052 | 2255 ft | 165 kts | 172° |
| 2026-05-04 04:23 | 38.26163 | -85.75683 | 2048 ft | 160 kts | 171° |
| 2026-05-04 04:24 | 38.25116 | -85.75324 | 1858 ft | 151 kts | 171° |
| 2026-05-04 04:24 | 38.24129 | -85.74984 | 1654 ft | 145 kts | 170° |
| 2026-05-04 04:24 | 38.23152 | -85.74640 | 1466 ft | 146 kts | 168° |
| 2026-05-04 04:24 | 38.22173 | -85.74308 | 1286 ft | 147 kts | 168° |
| 2026-05-04 04:25 | 38.21182 | -85.73978 | 1078 ft | 147 kts | 165° |
| 2026-05-04 04:25 | 38.20195 | -85.73641 | 899 ft | 147 kts | 165° |
| 2026-05-04 04:25 | 38.19208 | -85.73301 | 681 ft | 147 kts | 164° |
| 2026-05-04 04:25 | 38.18238 | -85.72965 | 504 ft | 139 kts | 165° |
| 2026-05-04 04:26 | 38.17488 | -85.72708 | 484 ft | 68 kts | 165° |
| 2026-05-04 04:26 | 38.17215 | -85.72616 | 480 ft | 23 kts | 165° |
| 2026-05-04 04:26 | 38.17065 | -85.72566 | 479 ft | 22 kts | 168° |
| 2026-05-04 04:26 | 38.16932 | -85.72562 | 478 ft | 15 kts | 190° |
| 2026-05-04 04:27 | 38.16859 | -85.72619 | 483 ft | 10 kts | 250° |
| 2026-05-04 04:27 | 38.16899 | -85.72670 | 484 ft | 9 kts | 343° |
| 2026-05-04 04:27 | 38.16967 | -85.72694 | 483 ft | 12 kts | 345° |
| 2026-05-04 04:27 | 38.17061 | -85.72726 | 485 ft | 16 kts | 345° |
| 2026-05-04 04:28 | 38.17180 | -85.72766 | 482 ft | 19 kts | 345° |
| 2026-05-04 04:28 | 38.17305 | -85.72809 | 485 ft | 18 kts | 345° |
| 2026-05-04 04:28 | 38.17425 | -85.72850 | 482 ft | 18 kts | 345° |
| 2026-05-04 04:28 | 38.17542 | -85.72889 | 483 ft | 17 kts | 345° |
| 2026-05-04 04:29 | 38.17654 | -85.72927 | 484 ft | 16 kts | 345° |
| 2026-05-04 04:29 | 38.17762 | -85.72964 | 480 ft | 16 kts | 345° |
| 2026-05-04 04:29 | 38.17866 | -85.72999 | 484 ft | 15 kts | 345° |
| 2026-05-04 04:29 | 38.17965 | -85.73033 | 483 ft | 15 kts | 345° |
| 2026-05-04 04:30 | 38.18061 | -85.73066 | 481 ft | 14 kts | 345° |
| 2026-05-04 04:30 | 38.18152 | -85.73097 | 484 ft | 13 kts | 345° |
| 2026-05-04 04:30 | 38.18239 | -85.73127 | 484 ft | 13 kts | 345° |
| 2026-05-04 04:30 | 38.18331 | -85.73158 | 484 ft | 13 kts | 345° |
| 2026-05-04 04:31 | 38.18419 | -85.73188 | 485 ft | 13 kts | 346° |
| 2026-05-04 04:31 | 38.18504 | -85.73217 | 485 ft | 12 kts | 345° |
| 2026-05-04 04:31 | 38.18586 | -85.73246 | 485 ft | 12 kts | 344° |
| 2026-05-04 04:31 | 38.18645 | -85.73292 | 487 ft | 10 kts | 294° |
| 2026-05-04 04:32 | 38.18660 | -85.73377 | 489 ft | 10 kts | 281° |
| 2026-05-04 04:32 | 38.18663 | -85.73460 | 484 ft | 9 kts | 250° |
| 2026-05-04 04:32 | 38.18631 | -85.73533 | 486 ft | 10 kts | 239° |
| 2026-05-04 04:32 | 38.18595 | -85.73612 | 488 ft | 11 kts | 239° |
| 2026-05-04 04:33 | 38.18553 | -85.73704 | 488 ft | 12 kts | 240° |
| 2026-05-04 04:33 | 38.18511 | -85.73794 | 487 ft | 12 kts | 239° |
| 2026-05-04 04:33 | 38.18479 | -85.73881 | 485 ft | 7 kts | 264° |
| 2026-05-04 04:33 | 38.18488 | -85.73942 | 488 ft | 7 kts | 272° |
| 2026-05-04 04:34 | 38.18453 | -85.73979 | 482 ft | 7 kts | 198° |
| 2026-05-04 04:34 | 38.18415 | -85.73998 | 481 ft | 4 kts | 201° |
| 2026-05-04 04:34 | 38.18412 | -85.73999 | 485 ft | 0 kts | 201° |